York, Wisconsin
Current Conditions -  °F | °C
As of 9:54 PM on Saturday 24 Jan 2015 (Local Time) from KMFI Reporting Station
Overcast Overcast  
Wind Chill: 33°   Ceiling: 2500
Heat Index: 33°   Visibility: 7mi
Dew Point: 30°   Wind: 0mph
Humidity: 89%   Direction: NA
Pressure: 29.64"   Gusts: NA
Location:  44.5388°N, 90.4382°W
Report Text: KMFI 250354Z AUTO 00000KT 7SM OVC025 01/M01 A2964 RMK AO2 SLP051 T00061011
Loading
Personal Weather Stations






























Interactive Weather Map New forecast layout! Learn more

10-Day Weather Forecast

Advertisements
Track Severe Weather on mobile